Time;durP1;ratioP1;P1;durP2;ratioP2;P2;SDS_P1;SDS_P2;PMS_P1;PMS_P2;Temp;Humidity;BMP_temperature;BMP_pressure;BME280_temperature;BME280_humidity;BME280_pressure;Samples;Min_cycle;Max_cycle;Signal;HPM_P1;HPM_P2
2024/04/11 00:00:49;;;;;;;11.60;5.90;;;17.60;70.30;;;;;;5395636;26;20014;-72
2024/04/11 00:03:20;;;;;;;11.57;5.45;;;17.60;70.60;;;;;;5418075;26;20104;-74
2024/04/11 00:05:47;;;;;;;12.43;5.78;;;17.60;70.40;;;;;;5457907;26;20078;-75
2024/04/11 00:08:15;;;;;;;8.88;6.00;;;17.60;70.60;;;;;;5470145;26;20323;-73
2024/04/11 00:10:42;;;;;;;13.45;6.45;;;17.50;70.90;;;;;;5415221;26;19999;-75
2024/04/11 00:13:10;;;;;;;10.65;5.63;;;17.50;70.80;;;;;;5401535;26;19999;-74
2024/04/11 00:15:37;;;;;;;11.50;6.07;;;17.60;70.70;;;;;;5441975;26;20011;-74
2024/04/11 00:18:05;;;;;;;10.60;5.88;;;17.60;70.60;;;;;;5421519;26;20014;-74
2024/04/11 00:20:32;;;;;;;12.02;6.05;;;17.50;70.90;;;;;;5393449;26;20426;-75
2024/04/11 00:23:00;;;;;;;11.40;6.55;;;17.40;71.50;;;;;;5433978;26;20010;-76
2024/04/11 00:25:27;;;;;;;13.48;5.95;;;17.40;71.70;;;;;;5408697;26;20350;-73
2024/04/11 00:27:55;;;;;;;11.05;6.15;;;17.50;72.00;;;;;;5446270;26;20001;-75
2024/04/11 00:30:22;;;;;;;8.25;5.72;;;17.50;71.80;;;;;;5420185;26;20395;-75
2024/04/11 00:32:50;;;;;;;10.60;6.05;;;17.50;71.40;;;;;;5420109;26;20002;-73
2024/04/11 00:35:18;;;;;;;15.02;7.30;;;17.60;71.20;;;;;;5432261;26;20007;-75
2024/04/11 00:37:48;;;;;;;13.60;7.35;;;17.30;71.10;;;;;;5398774;26;20047;-73
2024/04/11 00:40:16;;;;;;;12.30;6.18;;;17.30;72.00;;;;;;5458036;26;20007;-73
2024/04/11 00:42:44;;;;;;;10.85;6.22;;;17.40;72.50;;;;;;5398803;26;20017;-72
2024/04/11 00:45:12;;;;;;;15.90;6.82;;;17.40;72.10;;;;;;5420607;26;20007;-74
2024/04/11 00:47:40;;;;;;;9.25;5.60;;;17.40;72.20;;;;;;5424243;26;20003;-73
2024/04/11 00:50:09;;;;;;;11.32;6.70;;;17.40;71.40;;;;;;5404032;26;20346;-75
2024/04/11 00:52:38;;;;;;;9.57;6.03;;;17.40;72.20;;;;;;5421901;26;20020;-74
2024/04/11 00:55:08;;;;;;;9.77;6.05;;;17.40;72.00;;;;;;5452718;26;20013;-73
2024/04/11 00:57:36;;;;;;;9.80;6.30;;;17.50;72.20;;;;;;5403572;26;20083;-73
2024/04/11 01:00:06;;;;;;;15.48;6.47;;;17.50;72.00;;;;;;5452978;26;20010;-73
2024/04/11 01:02:35;;;;;;;;;;;17.40;72.20;;;;;;5453084;26;20002;-73
2024/04/11 01:05:03;;;;;;;9.70;6.22;;;17.30;72.10;;;;;;5481426;26;19924;-75
2024/04/11 01:07:32;;;;;;;11.38;5.70;;;17.40;72.80;;;;;;5458773;26;19996;-75
2024/04/11 01:09:59;;;;;;;12.32;6.28;;;17.30;72.80;;;;;;5452283;26;20010;-73
2024/04/11 01:12:27;;;;;;;8.55;5.95;;;17.20;73.10;;;;;;5459058;26;20047;-72
2024/04/11 01:14:55;;;;;;;8.20;5.78;;;17.10;72.80;;;;;;5408061;26;20019;-74
2024/04/11 01:17:22;;;;;;;10.20;6.13;;;16.90;73.30;;;;;;5449685;26;20437;-73
2024/04/11 01:19:50;;;;;;;10.38;6.68;;;16.80;73.80;;;;;;5474410;26;20013;-74
2024/04/11 01:22:18;;;;;;;12.68;6.20;;;16.90;74.00;;;;;;5422559;26;20017;-76
2024/04/11 01:24:47;;;;;;;12.10;6.28;;;16.90;73.70;;;;;;5392465;26;20011;-73
2024/04/11 01:27:14;;;;;;;11.80;6.00;;;17.00;73.60;;;;;;5391464;26;19998;-72
2024/04/11 01:29:42;;;;;;;8.57;5.43;;;16.90;73.60;;;;;;5447058;26;20323;-73
2024/04/11 01:32:09;;;;;;;9.48;5.40;;;16.90;73.70;;;;;;5427416;26;20571;-74
2024/04/11 01:34:37;;;;;;;9.88;5.43;;;16.80;74.10;;;;;;5437394;26;20038;-74
2024/04/11 01:37:05;;;;;;;8.70;5.55;;;16.70;73.10;;;;;;5399429;26;20318;-74
2024/04/11 01:39:33;;;;;;;13.13;6.05;;;16.70;73.20;;;;;;5435167;26;20003;-75
2024/04/11 01:42:00;;;;;;;9.65;6.20;;;16.70;73.40;;;;;;5444400;26;20040;-75
2024/04/11 01:44:28;;;;;;;12.57;5.35;;;16.50;73.80;;;;;;5420881;26;20003;-75
2024/04/11 01:46:57;;;;;;;8.60;5.80;;;16.40;74.40;;;;;;5421163;26;20357;-73
2024/04/11 01:49:24;;;;;;;9.68;5.65;;;16.40;74.10;;;;;;5419636;26;20016;-75
2024/04/11 01:51:52;;;;;;;9.82;6.13;;;16.30;74.40;;;;;;5412911;26;19999;-74
2024/04/11 01:54:21;;;;;;;11.32;5.45;;;16.40;74.70;;;;;;5451549;26;20354;-74
2024/04/11 01:56:49;;;;;;;8.98;5.45;;;16.40;74.50;;;;;;5452358;26;20071;-75
2024/04/11 01:59:17;;;;;;;9.88;5.57;;;16.30;74.50;;;;;;5410722;26;20007;-74
2024/04/11 02:01:45;;;;;;;8.27;5.70;;;16.20;74.70;;;;;;5453088;26;20407;-73
2024/04/11 02:04:12;;;;;;;10.52;5.70;;;16.00;75.50;;;;;;5390551;26;20011;-75
2024/04/11 02:06:40;;;;;;;8.30;5.28;;;16.10;76.00;;;;;;5430765;26;20006;-74
2024/04/11 02:09:11;;;;;;;10.77;5.40;;;16.00;76.00;;;;;;5451843;26;20009;-75
2024/04/11 02:11:42;;;;;;;12.30;5.97;;;15.60;76.00;;;;;;5452196;26;20062;-75
2024/04/11 02:14:11;;;;;;;8.93;5.35;;;15.70;76.20;;;;;;5424738;26;20087;-75
2024/04/11 02:16:39;;;;;;;8.57;5.45;;;15.90;77.20;;;;;;5422802;26;20003;-74
2024/04/11 02:19:07;;;;;;;12.57;5.40;;;15.80;76.00;;;;;;5451661;26;20037;-75
2024/04/11 02:21:40;;;;;;;9.50;5.30;;;15.80;76.20;;;;;;5451082;26;19999;-75
2024/04/11 02:24:16;;;;;;;9.73;5.10;;;15.70;76.10;;;;;;5406317;26;20012;-74
2024/04/11 02:26:48;;;;;;;12.43;5.38;;;15.70;76.40;;;;;;5426483;26;20370;-73
2024/04/11 02:29:17;;;;;;;10.27;5.70;;;15.50;77.00;;;;;;5418277;26;20075;-75
2024/04/11 02:31:48;;;;;;;10.40;5.82;;;15.60;76.80;;;;;;5390804;26;20088;-74
2024/04/11 02:34:16;;;;;;;7.97;5.78;;;15.50;76.60;;;;;;5429054;26;20062;-74
2024/04/11 02:36:46;;;;;;;11.93;5.55;;;15.30;77.80;;;;;;5390552;26;19999;-74
2024/04/11 02:39:17;;;;;;;9.98;6.25;;;15.10;77.80;;;;;;5435738;26;20013;-74
2024/04/11 02:41:46;;;;;;;8.88;5.88;;;15.20;77.80;;;;;;5457130;26;20074;-73
2024/04/11 02:44:18;;;;;;;11.82;6.00;;;15.10;78.00;;;;;;5402530;26;20018;-73
2024/04/11 02:46:46;;;;;;;14.55;6.20;;;14.90;78.60;;;;;;5442957;26;20344;-73
2024/04/11 02:49:15;;;;;;;9.20;6.00;;;15.00;78.70;;;;;;5440768;26;20014;-72
2024/04/11 02:51:43;;;;;;;10.60;6.28;;;15.10;78.10;;;;;;5452054;26;20063;-73
2024/04/11 02:54:12;;;;;;;10.45;5.65;;;15.10;78.00;;;;;;5435074;26;20007;-74
2024/04/11 02:56:41;;;;;;;8.13;6.28;;;14.90;78.10;;;;;;5421509;26;20022;-73
2024/04/11 02:59:11;;;;;;;9.20;5.85;;;14.80;79.00;;;;;;5419083;26;20079;-72
2024/04/11 03:01:39;;;;;;;7.00;5.32;;;14.60;80.40;;;;;;5451267;26;20017;-74
2024/04/11 03:04:06;;;;;;;9.80;5.68;;;14.80;79.40;;;;;;5410396;26;20010;-73
2024/04/11 03:06:35;;;;;;;9.00;5.88;;;14.90;78.70;;;;;;5450692;26;20682;-74
2024/04/11 03:09:03;;;;;;;10.98;6.13;;;15.00;78.50;;;;;;5444912;26;19998;-74
2024/04/11 03:11:35;;;;;;;7.95;5.82;;;15.00;78.90;;;;;;5468041;26;20003;-75
2024/04/11 03:14:06;;;;;;;7.28;5.30;;;15.00;78.20;;;;;;5450424;26;20002;-73
2024/04/11 03:16:34;;;;;;;11.07;5.90;;;15.00;78.40;;;;;;5417549;26;20005;-75
2024/04/11 03:19:01;;;;;;;9.27;5.75;;;15.00;78.60;;;;;;5441008;26;20006;-75
2024/04/11 03:21:29;;;;;;;8.10;5.55;;;14.90;78.50;;;;;;5418514;26;19995;-76
2024/04/11 03:23:56;;;;;;;8.27;5.35;;;15.00;78.20;;;;;;5389704;26;20035;-74
2024/04/11 03:26:24;;;;;;;8.73;5.63;;;14.90;78.20;;;;;;5457898;26;20002;-74
2024/04/11 03:28:52;;;;;;;10.23;5.70;;;14.90;78.20;;;;;;5424413;26;20026;-75
2024/04/11 03:31:21;;;;;;;11.20;5.38;;;14.90;78.40;;;;;;5448520;26;20318;-74
2024/04/11 03:33:50;;;;;;;8.50;5.72;;;14.90;78.30;;;;;;5428929;26;20231;-74
2024/04/11 03:36:19;;;;;;;;;;;15.00;78.30;;;;;;5471644;26;19998;-74
2024/04/11 03:38:54;;;;;;;12.35;5.45;;;14.90;78.00;;;;;;5429907;26;19924;-73
2024/04/11 03:41:22;;;;;;;8.55;5.90;;;14.90;78.10;;;;;;5431522;26;19999;-73
2024/04/11 03:43:54;;;;;;;8.70;5.68;;;14.90;78.20;;;;;;5428749;26;20010;-74
2024/04/11 03:46:23;;;;;;;7.95;5.68;;;14.50;79.10;;;;;;5445530;26;20003;-74
2024/04/11 03:48:56;;;;;;;8.63;6.25;;;14.50;79.60;;;;;;5457453;26;20336;-72
2024/04/11 03:51:29;;;;;;;9.88;6.40;;;14.50;79.60;;;;;;5453338;26;20337;-73
2024/04/11 03:54:00;;;;;;;7.25;5.38;;;14.50;79.70;;;;;;5408599;26;20003;-73
2024/04/11 03:56:28;;;;;;;8.68;6.20;;;14.40;79.80;;;;;;5421987;26;20007;-72
2024/04/11 03:58:57;;;;;;;11.02;5.95;;;14.50;79.80;;;;;;5422153;26;20022;-73
2024/04/11 04:01:26;;;;;;;9.43;5.85;;;14.50;79.30;;;;;;5416080;26;20338;-74
2024/04/11 04:04:02;;;;;;;8.43;5.63;;;14.40;79.80;;;;;;5453140;26;20360;-71
2024/04/11 04:06:33;;;;;;;10.93;5.88;;;14.50;79.90;;;;;;5451038;26;20006;-73
2024/04/11 04:09:07;;;;;;;10.83;6.53;;;14.60;79.70;;;;;;5443610;26;20392;-72
2024/04/11 04:11:37;;;;;;;8.93;6.00;;;14.40;79.90;;;;;;5434582;26;19999;-72
2024/04/11 04:14:09;;;;;;;13.13;6.40;;;14.50;80.40;;;;;;5416198;26;20326;-77
2024/04/11 04:16:41;;;;;;;10.75;6.20;;;14.50;80.00;;;;;;5392862;26;20072;-72
2024/04/11 04:19:10;;;;;;;10.98;6.30;;;14.30;80.20;;;;;;5421075;26;20003;-72
2024/04/11 04:21:39;;;;;;;9.35;5.90;;;14.30;80.00;;;;;;5454927;26;20015;-72
2024/04/11 04:24:08;;;;;;;12.25;6.60;;;14.30;80.00;;;;;;5453270;26;19999;-73
2024/04/11 04:26:38;;;;;;;7.57;6.07;;;14.30;80.10;;;;;;5421952;26;20013;-74
2024/04/11 04:29:05;;;;;;;8.40;5.55;;;14.30;80.00;;;;;;5415749;26;19998;-72
2024/04/11 04:31:33;;;;;;;13.30;6.10;;;14.40;80.00;;;;;;5453408;26;20391;-71
2024/04/11 04:34:08;;;;;;;8.20;5.85;;;14.40;80.00;;;;;;5453551;26;20041;-72
2024/04/11 04:36:41;;;;;;;7.38;6.05;;;14.50;79.80;;;;;;5391759;26;20010;-73
2024/04/11 04:39:13;;;;;;;10.48;6.03;;;14.50;79.60;;;;;;5453246;26;20003;-73
2024/04/11 04:41:44;;;;;;;9.57;5.65;;;14.40;80.00;;;;;;5416637;26;21169;-72
2024/04/11 04:44:12;;;;;;;8.77;5.72;;;14.50;80.00;;;;;;5447571;26;20012;-73
2024/04/11 04:46:39;;;;;;;8.30;5.75;;;14.40;80.20;;;;;;5420385;26;20007;-72
2024/04/11 04:49:10;;;;;;;8.65;5.45;;;14.10;80.00;;;;;;5453250;26;20834;-72
2024/04/11 04:51:41;;;;;;;8.20;5.97;;;14.20;80.90;;;;;;5434666;26;19995;-71
2024/04/11 04:54:10;;;;;;;9.95;6.50;;;14.10;81.20;;;;;;5437009;26;20426;-72
2024/04/11 04:56:41;;;;;;;10.07;6.18;;;14.20;81.40;;;;;;5424765;26;20023;-72
2024/04/11 04:59:12;;;;;;;6.80;5.78;;;14.30;80.60;;;;;;5463325;26;20028;-73
2024/04/11 05:01:40;;;;;;;9.82;6.22;;;14.50;79.80;;;;;;5452006;26;20467;-74
2024/04/11 05:04:13;;;;;;;8.68;5.80;;;14.50;79.70;;;;;;5401321;26;20014;-72
2024/04/11 05:06:44;;;;;;;9.43;5.65;;;14.40;79.90;;;;;;5452025;26;20041;-75
2024/04/11 05:09:11;;;;;;;15.02;5.75;;;14.60;79.80;;;;;;5421499;26;20010;-75
2024/04/11 05:11:39;;;;;;;92.10;48.28;;;14.70;79.50;;;;;;5420429;26;19999;-77
2024/04/11 05:14:09;;;;;;;22.85;15.55;;;14.90;79.40;;;;;;5452175;26;20072;-75
2024/04/11 05:16:37;;;;;;;17.17;10.48;;;15.00;78.20;;;;;;5454423;26;20045;-78
2024/04/11 05:19:07;;;;;;;17.92;9.70;;;14.70;79.30;;;;;;5453396;26;20007;-72
2024/04/11 05:21:39;;;;;;;60.30;37.67;;;14.60;80.00;;;;;;5451287;26;20315;-75
2024/04/11 05:24:10;;;;;;;52.03;30.48;;;15.00;80.00;;;;;;5427571;26;19994;-74
2024/04/11 05:26:38;;;;;;;26.55;16.67;;;15.10;78.90;;;;;;5433053;26;20006;-77
2024/04/11 05:29:07;;;;;;;11.95;9.00;;;15.30;78.60;;;;;;5461961;26;20011;-81
2024/04/11 05:31:37;;;;;;;17.83;9.57;;;15.30;77.70;;;;;;5432456;26;20425;-79
2024/04/11 05:34:08;;;;;;;12.00;7.10;;;15.40;77.70;;;;;;5454889;26;20403;-72
2024/04/11 05:36:39;;;;;;;11.18;6.47;;;15.20;77.80;;;;;;5455700;26;20429;-72
2024/04/11 05:39:14;;;;;;;15.27;7.03;;;15.20;78.40;;;;;;5454406;26;20311;-72
2024/04/11 05:41:45;;;;;;;10.52;6.72;;;15.20;78.20;;;;;;5439112;26;20010;-70
2024/04/11 05:44:14;;;;;;;15.87;7.17;;;15.20;78.20;;;;;;5454154;26;20007;-71
2024/04/11 05:46:42;;;;;;;18.75;7.78;;;15.30;78.30;;;;;;5451796;26;20436;-71
2024/04/11 05:49:09;;;;;;;13.38;7.00;;;15.30;78.50;;;;;;5421844;26;19995;-71
2024/04/11 05:51:37;;;;;;;10.80;7.38;;;15.30;78.40;;;;;;5420629;26;20011;-72
2024/04/11 05:54:07;;;;;;;11.30;6.82;;;15.40;78.50;;;;;;5389379;26;20458;-72
2024/04/11 05:56:35;;;;;;;116.38;66.70;;;15.40;78.30;;;;;;5427767;26;20023;-72
2024/04/11 05:59:03;;;;;;;129.60;77.63;;;15.50;77.90;;;;;;5424341;26;20306;-73
2024/04/11 06:01:34;;;;;;;55.63;37.15;;;15.70;78.40;;;;;;5450598;26;20016;-72
2024/04/11 06:04:05;;;;;;;20.58;13.20;;;15.90;78.40;;;;;;5452772;26;20014;-74
2024/04/11 06:06:33;;;;;;;13.05;8.45;;;16.20;78.10;;;;;;5427102;26;20021;-73
2024/04/11 06:09:00;;;;;;;12.55;6.80;;;16.10;77.60;;;;;;5449653;26;20342;-74
2024/04/11 06:11:29;;;;;;;18.10;8.20;;;16.10;77.50;;;;;;5453578;26;20017;-73
2024/04/11 06:13:57;;;;;;;16.08;6.63;;;16.20;77.50;;;;;;5423272;26;19998;-73
2024/04/11 06:16:24;;;;;;;18.50;6.80;;;16.20;76.70;;;;;;5438097;26;20009;-73
2024/04/11 06:18:54;;;;;;;11.73;6.53;;;16.30;76.70;;;;;;5451814;26;20345;-73
2024/04/11 06:21:32;;;;;;;10.70;6.80;;;16.30;76.60;;;;;;5435859;26;20375;-73
2024/04/11 06:24:01;;;;;;;16.13;7.28;;;16.40;76.80;;;;;;5403932;26;20022;-73
2024/04/11 06:26:33;;;;;;;14.40;6.63;;;16.30;77.00;;;;;;5460948;26;20002;-73
2024/04/11 06:29:07;;;;;;;11.75;6.28;;;16.40;76.70;;;;;;5457403;26;20447;-73
2024/04/11 06:31:38;;;;;;;12.73;6.22;;;16.50;77.10;;;;;;5433189;26;20006;-73
2024/04/11 06:34:08;;;;;;;11.32;6.03;;;16.60;77.00;;;;;;5451649;26;19998;-73
2024/04/11 06:36:38;;;;;;;11.55;6.20;;;16.70;77.50;;;;;;5479349;26;20319;-72
2024/04/11 06:39:13;;;;;;;10.50;6.18;;;16.80;77.10;;;;;;5394798;26;20388;-72
2024/04/11 06:41:41;;;;;;;8.25;5.50;;;16.90;77.40;;;;;;5448710;26;20482;-73
2024/04/11 06:44:10;;;;;;;14.15;5.22;;;17.10;77.20;;;;;;5449880;26;20039;-72
2024/04/11 06:46:39;;;;;;;15.35;4.63;;;17.20;76.80;;;;;;5475211;26;20013;-72
2024/04/11 06:49:09;;;;;;;16.75;5.45;;;17.30;76.40;;;;;;5419182;26;20351;-72
2024/04/11 06:51:37;;;;;;;10.97;4.37;;;17.50;75.90;;;;;;5418402;26;20065;-73
2024/04/11 06:54:05;;;;;;;12.65;4.75;;;17.60;75.20;;;;;;5420772;26;20283;-72
2024/04/11 06:56:32;;;;;;;21.92;4.38;;;17.70;75.00;;;;;;5450835;26;20006;-73
2024/04/11 06:59:01;;;;;;;5.63;3.60;;;17.80;75.00;;;;;;5451149;26;20003;-73
2024/04/11 07:01:28;;;;;;;6.43;3.67;;;17.80;74.20;;;;;;5450886;26;20009;-73
2024/04/11 07:04:00;;;;;;;8.10;4.60;;;17.90;74.00;;;;;;5450450;26;20039;-72
2024/04/11 07:06:29;;;;;;;8.88;3.67;;;18.00;74.00;;;;;;5441096;26;20019;-73
2024/04/11 07:08:58;;;;;;;8.05;3.42;;;18.10;73.60;;;;;;5429177;26;19995;-72
2024/04/11 07:11:32;;;;;;;8.40;3.65;;;18.20;73.40;;;;;;5419779;26;20392;-72
2024/04/11 07:14:05;;;;;;;7.93;3.92;;;18.20;72.90;;;;;;5418303;26;20003;-73
2024/04/11 07:16:32;;;;;;;12.40;3.65;;;18.30;73.10;;;;;;5435614;26;20338;-72
2024/04/11 07:19:02;;;;;;;17.55;4.00;;;18.40;72.80;;;;;;5453898;26;20043;-72
2024/04/11 07:21:34;;;;;;;9.10;4.20;;;18.50;73.30;;;;;;5436301;26;20140;-72
2024/04/11 07:24:03;;;;;;;5.68;3.40;;;18.50;72.40;;;;;;5436594;26;20017;-73
2024/04/11 07:26:32;;;;;;;9.17;4.57;;;18.50;71.80;;;;;;5473008;26;21685;-73
2024/04/11 07:29:05;;;;;;;11.52;3.30;;;18.60;72.60;;;;;;5424515;26;20212;-73
2024/04/11 07:31:36;;;;;;;9.52;3.63;;;18.60;70.90;;;;;;5455372;26;20011;-72
2024/04/11 07:34:04;;;;;;;15.20;3.80;;;18.70;71.40;;;;;;5439752;26;19999;-73
2024/04/11 07:36:38;;;;;;;7.97;3.53;;;18.70;71.60;;;;;;5397065;26;20010;-73
2024/04/11 07:39:08;;;;;;;12.48;4.35;;;18.80;70.80;;;;;;5453252;26;20027;-73
2024/04/11 07:41:45;;;;;;;9.13;3.80;;;18.80;71.10;;;;;;5461607;26;20048;-72
2024/04/11 07:44:17;;;;;;;9.52;3.35;;;19.00;71.10;;;;;;5435398;26;20007;-72
2024/04/11 07:46:46;;;;;;;9.65;3.90;;;19.10;70.10;;;;;;5408687;26;20082;-73
2024/04/11 07:49:35;;;;;;;10.85;3.47;;;19.10;70.60;;;;;;5403297;26;20006;-75
2024/04/11 07:52:04;;;;;;;9.50;3.77;;;19.20;69.90;;;;;;5413814;26;20003;-73
2024/04/11 07:54:32;;;;;;;7.97;4.50;;;19.40;69.60;;;;;;5438231;26;20069;-74
2024/04/11 07:57:11;;;;;;;8.98;3.88;;;19.40;69.30;;;;;;5436907;26;20006;-74
2024/04/11 07:59:38;;;;;;;7.18;3.67;;;19.50;68.40;;;;;;5392086;26;20014;-74
2024/04/11 08:02:06;;;;;;;8.13;3.60;;;19.50;68.30;;;;;;5456397;26;20075;-74
2024/04/11 08:04:36;;;;;;;8.75;4.05;;;19.60;68.30;;;;;;5429478;26;20018;-73
2024/04/11 08:07:04;;;;;;;12.55;4.72;;;19.80;69.00;;;;;;5454373;26;20047;-73
2024/04/11 08:09:44;;;;;;;9.82;3.45;;;20.00;68.70;;;;;;5465656;26;20023;-75
2024/04/11 08:12:17;;;;;;;9.25;3.85;;;19.90;67.10;;;;;;5451975;26;20014;-73
2024/04/11 08:14:45;;;;;;;8.48;3.15;;;19.80;67.10;;;;;;5458465;26;20003;-73
2024/04/11 08:17:13;;;;;;;9.50;3.25;;;20.00;67.60;;;;;;5442239;26;20016;-74
2024/04/11 08:19:43;;;;;;;5.20;2.83;;;20.00;67.20;;;;;;5427420;26;20472;-73
2024/04/11 08:22:24;;;;;;;9.52;3.30;;;19.90;65.00;;;;;;5440062;26;20006;-75
2024/04/11 08:24:53;;;;;;;6.80;3.40;;;19.90;65.30;;;;;;5479785;26;20011;-74
2024/04/11 08:27:22;;;;;;;11.85;3.63;;;19.90;65.60;;;;;;5444975;26;20002;-74
2024/04/11 08:29:50;;;;;;;6.60;3.20;;;20.10;64.30;;;;;;5455942;26;20002;-76
2024/04/11 08:32:21;;;;;;;10.77;3.40;;;20.10;65.00;;;;;;5457656;26;20013;-75
2024/04/11 08:34:50;;;;;;;9.50;3.42;;;20.30;64.00;;;;;;5423023;26;20006;-75
2024/04/11 08:37:20;;;;;;;7.10;3.15;;;20.40;64.10;;;;;;5462527;26;20324;-76
2024/04/11 08:39:49;;;;;;;9.48;3.30;;;20.50;63.90;;;;;;5439258;26;20375;-74
2024/04/11 08:42:18;;;;;;;8.50;3.40;;;20.70;64.00;;;;;;5418010;26;20022;-72
2024/04/11 08:44:48;;;;;;;7.63;3.05;;;20.70;62.90;;;;;;5471151;26;20215;-72
2024/04/11 08:47:16;;;;;;;8.02;3.15;;;20.70;63.20;;;;;;5457840;26;20089;-73
2024/04/11 08:49:44;;;;;;;7.93;3.45;;;20.80;63.80;;;;;;5468057;26;20002;-75
2024/04/11 08:52:17;;;;;;;11.90;3.30;;;21.00;63.60;;;;;;5410159;26;20338;-74
2024/04/11 08:54:46;;;;;;;10.18;3.78;;;21.20;63.50;;;;;;5452321;26;20375;-74
2024/04/11 08:57:14;;;;;;;6.25;3.03;;;21.30;62.70;;;;;;5448011;26;20014;-74
2024/04/11 08:59:44;;;;;;;6.32;3.30;;;21.30;62.60;;;;;;5460671;26;20017;-74
2024/04/11 09:02:12;;;;;;;11.25;3.50;;;21.30;60.80;;;;;;5420999;26;19998;-74
2024/04/11 09:04:39;;;;;;;6.15;3.30;;;21.40;61.40;;;;;;5452522;26;20706;-74
2024/04/11 09:07:20;;;;;;;6.72;3.35;;;21.50;60.00;;;;;;5430419;26;20014;-73
2024/04/11 09:09:52;;;;;;;5.95;3.08;;;21.50;60.10;;;;;;5409835;26;20002;-73
2024/04/11 09:12:22;;;;;;;9.10;4.22;;;21.40;58.90;;;;;;5442189;26;20076;-74
2024/04/11 09:14:50;;;;;;;6.50;2.90;;;21.30;60.00;;;;;;5410676;26;20026;-74
2024/04/11 09:17:18;;;;;;;8.98;3.38;;;21.60;59.80;;;;;;5395003;26;20003;-73
2024/04/11 09:19:49;;;;;;;;;;;21.70;60.30;;;;;;5395197;26;20315;-73
2024/04/11 09:22:21;;;;;;;8.30;2.92;;;21.70;60.80;;;;;;5426853;26;20319;-74
2024/04/11 09:24:50;;;;;;;7.15;3.35;;;21.80;60.20;;;;;;5439791;26;20035;-73
2024/04/11 09:27:20;;;;;;;6.68;2.65;;;22.10;60.10;;;;;;5420207;26;19998;-73
2024/04/11 09:29:47;;;;;;;5.15;2.85;;;22.30;59.90;;;;;;5430392;26;20055;-75
2024/04/11 09:32:16;;;;;;;5.72;2.88;;;22.40;57.60;;;;;;5428736;26;20013;-74
2024/04/11 09:34:45;;;;;;;7.55;3.00;;;22.60;58.10;;;;;;5431048;26;20361;-76
2024/04/11 09:37:15;;;;;;;11.18;3.05;;;22.60;57.80;;;;;;5469806;26;20014;-76
2024/04/11 09:39:48;;;;;;;6.75;2.90;;;22.70;57.30;;;;;;5390669;26;20014;-74
2024/04/11 09:42:19;;;;;;;5.50;2.50;;;22.80;57.20;;;;;;5409346;26;20001;-74
2024/04/11 09:44:52;;;;;;;5.38;2.70;;;22.90;57.00;;;;;;5480691;26;20014;-77
2024/04/11 09:47:31;;;;;;;8.65;2.70;;;23.00;55.70;;;;;;5452232;26;20007;-73
2024/04/11 09:50:04;;;;;;;4.63;2.72;;;23.10;56.60;;;;;;5473773;26;20079;-74
2024/04/11 09:52:41;;;;;;;7.70;4.03;;;23.00;55.90;;;;;;5421329;26;20430;-76
2024/04/11 09:55:09;;;;;;;7.13;3.03;;;23.00;56.80;;;;;;5465268;26;20030;-77
2024/04/11 09:57:44;;;;;;;10.40;2.95;;;22.90;56.50;;;;;;5465027;26;20031;-75
2024/04/11 10:03:03;;;;;;;9.57;3.40;;;22.70;56.00;;;;;;5446996;26;19998;-74
2024/04/11 10:05:38;;;;;;;16.90;7.20;;;22.90;55.80;;;;;;5427837;26;20006;-75
2024/04/11 10:08:16;;;;;;;5.30;3.08;;;23.30;56.20;;;;;;5418600;26;20003;-75
2024/04/11 10:10:51;;;;;;;6.97;2.90;;;23.00;53.80;;;;;;5429990;26;20014;-76
2024/04/11 10:13:22;;;;;;;9.93;2.97;;;23.00;53.60;;;;;;5414414;26;20039;-75
2024/04/11 10:16:06;;;;;;;7.53;3.00;;;23.20;54.20;;;;;;5432288;26;20075;-75
2024/04/11 10:18:45;;;;;;;7.72;3.22;;;23.60;53.90;;;;;;5436246;26;19999;-72
2024/04/11 10:21:27;;;;;;;6.03;2.97;;;23.80;55.20;;;;;;5438974;26;20648;-74
2024/04/11 10:24:23;;;;;;;8.48;2.83;;;23.60;53.30;;;;;;5451594;26;20014;-73
2024/04/11 10:26:51;;;;;;;11.82;3.63;;;23.70;54.20;;;;;;5420223;26;20007;-73
2024/04/11 10:29:20;;;;;;;9.35;3.58;;;24.00;55.30;;;;;;5413695;26;19998;-72
2024/04/11 10:31:52;;;;;;;7.40;3.03;;;24.50;55.00;;;;;;5390969;26;20619;-74
2024/04/11 10:34:25;;;;;;;11.02;3.40;;;24.50;53.50;;;;;;5436056;26;20006;-74
2024/04/11 10:37:14;;;;;;;8.77;3.20;;;24.70;54.60;;;;;;5424724;26;20023;-75
2024/04/11 10:39:41;;;;;;;5.32;3.15;;;24.80;53.70;;;;;;5403589;26;19999;-73
2024/04/11 10:42:13;;;;;;;5.43;2.80;;;25.10;52.60;;;;;;5443004;26;20003;-73
2024/04/11 10:44:45;;;;;;;6.57;2.95;;;25.20;52.00;;;;;;5452691;26;20042;-74
2024/04/11 10:47:13;;;;;;;7.82;2.65;;;25.10;51.20;;;;;;5440624;26;20002;-73
2024/04/11 10:49:45;;;;;;;8.93;2.90;;;25.20;51.80;;;;;;5423054;26;20003;-74
2024/04/11 10:52:13;;;;;;;7.15;3.17;;;25.30;52.10;;;;;;5442277;26;20009;-73
2024/04/11 10:54:42;;;;;;;7.35;2.95;;;25.30;50.20;;;;;;5457119;26;20011;-74
2024/04/11 10:57:13;;;;;;;4.93;2.80;;;25.30;50.90;;;;;;5437702;26;19998;-74
2024/04/11 10:59:50;;;;;;;4.57;2.28;;;25.50;50.10;;;;;;5436846;26;20401;-75
2024/04/11 11:02:24;;;;;;;4.95;2.33;;;25.60;49.50;;;;;;5419176;26;20007;-76
2024/04/11 11:04:55;;;;;;;6.45;2.60;;;25.50;49.80;;;;;;5450832;26;20014;-74
2024/04/11 11:07:31;;;;;;;6.65;2.50;;;25.30;48.60;;;;;;5464896;26;20049;-74
2024/04/11 11:09:59;;;;;;;4.32;2.38;;;25.30;49.50;;;;;;5448500;26;20007;-75
2024/04/11 11:12:27;;;;;;;7.47;3.08;;;25.30;48.70;;;;;;5430617;26;20048;-75
2024/04/11 11:14:54;;;;;;;6.20;2.30;;;26.10;47.70;;;;;;5457070;26;20002;-75
2024/04/11 11:17:22;;;;;;;5.60;2.70;;;26.80;46.30;;;;;;5467169;26;20030;-74
2024/04/11 11:19:50;;;;;;;6.57;2.70;;;27.00;46.00;;;;;;5416504;26;20367;-75
2024/04/11 11:22:43;;;;;;;5.38;2.60;;;27.10;46.70;;;;;;5411095;26;19998;-75
2024/04/11 11:25:11;;;;;;;5.63;2.60;;;27.30;47.40;;;;;;5395513;26;20003;-75
2024/04/11 11:27:39;;;;;;;4.70;2.75;;;27.60;47.70;;;;;;5472448;26;20036;-75
2024/04/11 11:30:15;;;;;;;10.93;2.72;;;27.80;46.80;;;;;;5450789;26;20003;-75
2024/04/11 11:32:44;;;;;;;8.57;2.33;;;27.60;45.70;;;;;;5418686;26;20006;-74
2024/04/11 11:35:12;;;;;;;8.95;2.25;;;27.60;46.00;;;;;;5450475;26;20002;-75
2024/04/11 11:37:39;;;;;;;6.05;2.20;;;27.70;46.80;;;;;;5405674;26;20042;-74
2024/04/11 11:42:56;;;;;;;8.38;2.53;;;27.30;46.80;;;;;;5472365;26;20006;-72
2024/04/11 11:45:27;;;;;;;3.70;2.10;;;27.30;46.30;;;;;;5394506;26;20003;-75
2024/04/11 11:48:12;;;;;;;8.35;2.20;;;27.30;45.00;;;;;;5418524;26;20391;-72
2024/04/11 11:50:43;;;;;;;7.20;2.03;;;27.20;45.60;;;;;;5435845;26;20011;-72
2024/04/11 11:53:32;;;;;;;4.40;1.90;;;27.50;45.40;;;;;;5419753;26;20025;-72
2024/04/11 11:56:05;;;;;;;;;;;27.60;44.20;;;;;;5419599;26;20003;-72
2024/04/11 11:58:35;;;;;;;7.43;2.20;;;27.30;45.10;;;;;;5466405;26;19931;-73
2024/04/11 12:01:19;;;;;;;9.50;2.45;;;27.90;45.80;;;;;;5424561;26;20010;-75
2024/04/11 12:03:55;;;;;;;8.32;2.33;;;28.10;45.30;;;;;;5421941;26;20007;-73
2024/04/11 12:06:33;;;;;;;6.22;2.17;;;28.40;45.10;;;;;;5456484;26;20025;-74
2024/04/11 12:09:10;;;;;;;5.97;2.53;;;28.40;43.80;;;;;;5460675;26;20007;-73
2024/04/11 12:12:07;;;;;;;5.05;2.40;;;28.00;44.20;;;;;;5422621;26;20027;-73
2024/04/11 12:14:35;;;;;;;6.15;2.75;;;28.30;45.30;;;;;;5421843;26;20048;-73
2024/04/11 12:17:04;;;;;;;5.80;2.40;;;28.60;45.00;;;;;;5421545;26;20015;-73
2024/04/11 12:19:35;;;;;;;5.07;2.53;;;28.60;45.00;;;;;;5453499;26;19998;-74
2024/04/11 12:22:16;;;;;;;6.75;2.25;;;28.80;44.90;;;;;;5436912;26;20311;-73
2024/04/11 12:24:50;;;;;;;4.72;2.05;;;28.80;43.80;;;;;;5421330;26;19999;-74
2024/04/11 12:27:23;;;;;;;7.47;2.20;;;28.90;44.10;;;;;;5421605;26;20014;-73
2024/04/11 12:30:08;;;;;;;3.30;1.88;;;28.70;41.90;;;;;;5424665;26;20022;-73
2024/04/11 12:32:40;;;;;;;5.63;1.70;;;28.20;43.30;;;;;;5435908;26;20055;-74
2024/04/11 12:35:07;;;;;;;4.90;2.22;;;28.30;42.40;;;;;;5420899;26;20026;-73
2024/04/11 12:37:37;;;;;;;5.05;2.58;;;28.80;44.10;;;;;;5452947;26;20087;-73
2024/04/11 12:40:06;;;;;;;5.90;2.45;;;29.10;44.00;;;;;;5414449;26;20082;-73
2024/04/11 12:42:38;;;;;;;6.35;2.08;;;29.50;43.20;;;;;;5422104;26;20010;-73
2024/04/11 12:45:07;;;;;;;6.47;2.35;;;28.80;42.00;;;;;;5391484;26;19994;-73
2024/04/11 12:48:09;;;;;;;5.05;2.10;;;28.30;43.50;;;;;;5435920;26;19999;-73
2024/04/11 12:50:29;;;;;;;6.25;2.40;;;28.40;42.00;;;;;;5434076;26;20321;-73
2024/04/11 12:52:56;;;;;;;4.95;2.22;;;27.90;42.60;;;;;;5402314;26;19999;-73
2024/04/11 12:55:26;;;;;;;4.35;2.50;;;29.20;43.00;;;;;;5471820;26;20330;-74
2024/04/11 12:58:05;;;;;;;4.32;2.17;;;33.20;41.50;;;;;;5444775;26;20449;-72
2024/04/11 13:00:43;;;;;;;6.43;2.22;;;34.90;40.70;;;;;;5442951;26;20096;-74
2024/04/11 13:03:18;;;;;;;5.43;2.30;;;36.30;38.80;;;;;;5421182;26;20003;-74
2024/04/11 13:05:52;;;;;;;5.07;2.10;;;34.90;38.60;;;;;;5421543;26;20375;-74